Time;durP1;ratioP1;P1;durP2;ratioP2;P2;SDS_P1;SDS_P2;PMS_P1;PMS_P2;Temp;Humidity;BMP_temperature;BMP_pressure;BME280_temperature;BME280_humidity;BME280_pressure;Samples;Min_cycle;Max_cycle;Signal;HPM_P1;HPM_P2
2023/06/13 00:00:44;;;;;;;5.32;3.75;;;;;;;15.33;58.58;99640.25;5052238;28;20108;-82
2023/06/13 00:03:13;;;;;;;4.97;3.90;;;;;;;15.44;58.94;99660.56;5051833;28;20159;-82
2023/06/13 00:05:41;;;;;;;7.30;4.20;;;;;;;15.22;59.34;99634.91;5052133;28;20025;-82
2023/06/13 00:08:06;;;;;;;5.30;4.28;;;;;;;15.35;60.02;99666.41;5052343;28;20090;-82
2023/06/13 00:10:32;;;;;;;6.70;4.30;;;;;;;15.20;59.98;99642.84;5051956;28;20350;-82
2023/06/13 00:12:57;;;;;;;4.68;3.97;;;;;;;15.26;60.30;99643.41;5052206;28;20444;-82
2023/06/13 00:15:23;;;;;;;5.45;4.00;;;;;;;15.11;59.84;99626.88;5051799;28;20021;-82
2023/06/13 00:17:48;;;;;;;4.40;4.00;;;;;;;15.14;59.92;99632.78;5052030;28;20380;-82
2023/06/13 00:20:14;;;;;;;4.18;3.65;;;;;;;15.24;59.96;99651.38;5051622;28;20025;-82
2023/06/13 00:22:40;;;;;;;4.80;3.85;;;;;;;15.17;60.43;99632.59;5051753;28;20059;-82
2023/06/13 00:25:05;;;;;;;6.20;4.30;;;;;;;14.97;60.46;99604.19;5051923;28;20096;-82
2023/06/13 00:27:32;;;;;;;4.75;3.33;;;;;;;15.05;60.58;99633.38;5050361;28;20025;-83
2023/06/13 00:29:57;;;;;;;3.97;3.55;;;;;;;14.98;60.82;99638.16;5051880;28;20059;-83
2023/06/13 00:32:23;;;;;;;4.72;4.25;;;;;;;14.85;60.99;99615.47;5051348;28;20024;-82
2023/06/13 00:34:48;;;;;;;5.25;4.15;;;;;;;14.89;61.76;99624.81;5051615;28;20080;-82
2023/06/13 00:37:14;;;;;;;5.00;4.50;;;;;;;14.70;61.65;99604.19;5051462;28;20029;-82
2023/06/13 00:39:40;;;;;;;16.25;7.93;;;;;;;14.74;61.81;99618.78;5051689;28;20081;-82
2023/06/13 00:42:06;;;;;;;6.50;5.20;;;;;;;14.31;62.22;99571.69;5051978;28;20036;-82
2023/06/13 00:44:35;;;;;;;5.60;4.50;;;;;;;14.63;61.80;99622.09;5051438;28;20492;-82
2023/06/13 00:47:02;;;;;;;8.30;5.22;;;;;;;14.60;62.13;99617.03;5051707;28;20520;-82
2023/06/13 00:49:28;;;;;;;17.42;8.20;;;;;;;14.71;61.77;99637.34;5051354;28;20029;-82
2023/06/13 00:52:04;;;;;;;25.58;13.63;;;;;;;14.57;61.84;99608.53;5050217;28;20369;-82
2023/06/13 00:54:30;;;;;;;41.60;19.00;;;;;;;14.43;61.90;99593.66;5051535;28;20072;-82
2023/06/13 00:56:56;;;;;;;19.88;9.75;;;;;;;14.60;61.92;99627.53;5051565;28;20025;-82
2023/06/13 00:59:21;;;;;;;14.45;7.72;;;;;;;14.58;61.77;99618.06;5051388;28;20032;-82
2023/06/13 01:01:47;;;;;;;12.50;7.75;;;;;;;14.50;61.75;99613.34;5051410;28;20025;-82
2023/06/13 01:04:13;;;;;;;9.45;6.55;;;;;;;14.51;61.88;99622.03;5051176;28;20469;-82
2023/06/13 01:06:44;;;;;;;9.93;6.25;;;;;;;14.48;61.64;99608.16;5051405;28;20029;-82
2023/06/13 01:09:10;;;;;;;10.80;7.30;;;;;;;14.51;61.93;99611.56;5050234;28;20047;-82
2023/06/13 01:11:48;;;;;;;10.85;7.18;;;;;;;14.41;61.64;99580.66;5051629;28;20468;-82
2023/06/13 01:14:20;;;;;;;10.13;7.50;;;;;;;14.60;61.90;99611.81;5051307;28;20029;-82
2023/06/13 01:16:50;;;;;;;11.38;6.40;;;;;;;14.46;61.77;99596.94;5051218;28;20025;-82
2023/06/13 01:19:31;;;;;;;9.88;6.45;;;;;;;14.50;62.21;99602.84;5051305;28;20033;-82
2023/06/13 01:21:58;;;;;;;7.90;5.93;;;;;;;14.23;62.02;99561.69;5051420;28;20472;-82
2023/06/13 01:24:38;;;;;;;8.27;6.05;;;;;;;14.46;62.07;99601.34;5049738;28;20079;-83
2023/06/13 01:27:04;;;;;;;7.05;5.22;;;;;;;14.44;62.29;99600.56;5051294;28;20025;-82
2023/06/13 01:29:31;;;;;;;7.85;5.10;;;;;;;14.40;62.25;99601.69;5050888;28;20044;-82
2023/06/13 01:31:58;;;;;;;6.70;5.72;;;;;;;14.29;62.93;99598.94;5051459;28;20496;-82
2023/06/13 01:34:24;;;;;;;6.35;5.28;;;;;;;14.09;63.55;99593.16;5050967;28;20064;-82
2023/06/13 01:36:50;;;;;;;8.45;5.07;;;;;;;14.04;63.52;99579.50;5051321;28;20052;-82
2023/06/13 01:39:16;;;;;;;6.53;5.30;;;;;;;14.17;63.36;99604.00;5051020;28;20064;-82
2023/06/13 01:41:41;;;;;;;8.32;6.00;;;;;;;14.03;63.59;99576.97;5051149;28;20032;-82
2023/06/13 01:44:11;;;;;;;8.50;5.30;;;;;;;13.98;64.01;99580.72;5051803;28;20115;-82
2023/06/13 01:47:15;;;;;;;7.22;5.25;;;;;;;14.01;64.41;99600.63;5054434;28;20443;-82
2023/06/13 01:49:47;;;;;;;8.65;5.78;;;;;;;13.97;64.58;99607.00;5052200;28;20041;-82
2023/06/13 01:52:25;;;;;;;7.25;5.82;;;;;;;13.88;65.21;99607.56;5035283;28;20021;-82
2023/06/13 01:54:57;;;;;;;8.55;5.65;;;;;;;13.63;65.37;99575.00;5052065;28;20120;-82
2023/06/13 01:57:28;;;;;;;6.55;5.85;;;;;;;13.55;65.75;99556.31;5051892;28;20029;-82
2023/06/13 01:59:55;;;;;;;5.93;5.32;;;;;;;13.67;65.85;99580.91;5052174;28;20076;-82
2023/06/13 02:02:21;;;;;;;9.75;6.00;;;;;;;13.76;65.92;99587.38;5051753;28;20021;-82
2023/06/13 02:04:49;;;;;;;5.95;5.32;;;;;;;13.71;66.31;99588.47;5051850;28;20070;-82
2023/06/13 02:07:14;;;;;;;8.90;6.30;;;;;;;13.54;66.36;99582.59;5051507;28;20072;-82
2023/06/13 02:09:40;;;;;;;7.70;6.10;;;;;;;13.59;66.80;99588.38;5051809;28;20061;-82
2023/06/13 02:12:06;;;;;;;7.47;6.15;;;;;;;13.57;66.96;99596.34;5051724;28;20040;-82
2023/06/13 02:14:32;;;;;;;8.90;6.20;;;;;;;13.47;67.29;99587.31;5051449;28;20037;-82
2023/06/13 02:16:59;;;;;;;8.75;6.03;;;;;;;13.30;67.90;99598.78;5051686;28;20032;-82
2023/06/13 02:19:25;;;;;;;7.53;5.93;;;;;;;13.23;68.72;99606.16;5051198;28;20060;-82
2023/06/13 02:21:50;;;;;;;7.57;6.50;;;;;;;13.12;69.30;99594.59;5051561;28;20037;-82
2023/06/13 02:24:16;;;;;;;13.38;6.45;;;;;;;13.15;69.83;99610.97;5051395;28;20036;-82
2023/06/13 02:26:41;;;;;;;8.40;6.53;;;;;;;12.94;69.84;99586.91;5053261;28;20384;-82
2023/06/13 02:29:07;;;;;;;11.10;6.85;;;;;;;13.03;70.69;99601.22;5053950;28;20032;-82
2023/06/13 02:31:35;;;;;;;8.10;6.43;;;;;;;13.05;70.72;99611.56;5052300;28;20033;-82
2023/06/13 02:34:01;;;;;;;6.45;5.85;;;;;;;12.94;70.87;99591.28;5053597;28;20071;-82
2023/06/13 02:36:28;;;;;;;11.20;6.60;;;;;;;13.06;71.08;99616.72;5053439;28;20550;-82
2023/06/13 02:38:53;;;;;;;7.72;5.85;;;;;;;13.06;71.34;99611.50;5053981;28;20017;-82
2023/06/13 02:41:18;;;;;;;7.47;6.45;;;;;;;13.02;71.56;99604.75;5053519;28;20056;-82
2023/06/13 02:43:44;;;;;;;9.07;6.07;;;;;;;13.04;71.71;99602.88;5053565;28;20029;-82
2023/06/13 02:46:10;;;;;;;7.68;6.53;;;;;;;12.90;72.06;99584.56;5053553;28;20029;-82
2023/06/13 02:48:36;;;;;;;10.77;7.18;;;;;;;13.10;72.39;99612.16;5053147;28;20392;-82
2023/06/13 02:51:02;;;;;;;11.15;6.55;;;;;;;12.92;72.48;99585.28;5053435;28;20098;-82
2023/06/13 02:53:27;;;;;;;7.93;6.60;;;;;;;12.88;72.67;99583.78;5053328;28;20025;-82
2023/06/13 02:55:54;;;;;;;6.88;6.10;;;;;;;13.01;73.02;99612.69;5053443;28;20483;-82
2023/06/13 02:58:20;;;;;;;14.88;6.78;;;;;;;12.85;73.01;99576.09;5053248;28;20428;-82
2023/06/13 03:00:45;;;;;;;8.35;6.63;;;;;;;12.97;73.08;99599.78;5053238;28;20071;-82
2023/06/13 03:03:11;;;;;;;10.43;7.30;;;;;;;12.86;73.48;99578.66;5051767;28;20400;-82
2023/06/13 03:05:36;;;;;;;7.00;6.30;;;;;;;12.87;73.82;99579.50;5051868;28;20033;-82
2023/06/13 03:08:03;;;;;;;10.88;7.32;;;;;;;12.85;74.25;99595.28;5053609;28;20091;-82
2023/06/13 03:10:28;;;;;;;8.38;7.32;;;;;;;12.83;74.27;99597.13;5053029;28;20071;-82
2023/06/13 03:12:53;;;;;;;9.48;6.97;;;;;;;12.82;75.05;99610.28;5053192;28;20435;-82
2023/06/13 03:15:19;;;;;;;8.38;7.15;;;;;;;12.74;75.40;99608.94;5052945;28;20059;-82
2023/06/13 03:17:44;;;;;;;9.10;7.43;;;;;;;12.72;75.54;99602.97;5053014;28;20048;-82
2023/06/13 03:20:11;;;;;;;8.70;6.57;;;;;;;12.84;75.73;99619.69;5053174;28;20036;-82
2023/06/13 03:22:36;;;;;;;10.15;7.35;;;;;;;12.67;75.93;99593.69;5051478;28;20075;-82
2023/06/13 03:25:05;;;;;;;11.15;7.45;;;;;;;12.80;75.95;99625.19;5052933;28;20025;-82
2023/06/13 03:27:33;;;;;;;9.43;6.45;;;;;;;12.57;76.24;99595.97;5052650;28;20031;-82
2023/06/13 03:29:59;;;;;;;13.25;7.18;;;;;;;12.58;76.45;99596.81;5052780;28;20125;-82
2023/06/13 03:32:24;;;;;;;7.63;6.32;;;;;;;12.72;76.23;99616.03;5052485;28;20520;-82
2023/06/13 03:34:52;;;;;;;10.80;6.55;;;;;;;12.58;76.52;99588.97;5051167;28;20382;-82
2023/06/13 03:37:18;;;;;;;8.25;6.32;;;;;;;12.57;76.44;99582.91;5053007;28;20533;-82
2023/06/13 03:39:43;;;;;;;9.15;6.75;;;;;;;12.82;76.39;99607.66;5051224;28;20033;-82
2023/06/13 03:42:08;;;;;;;10.20;7.10;;;;;;;12.70;76.68;99591.72;5052472;28;20048;-82
2023/06/13 03:44:34;;;;;;;10.40;6.30;;;;;;;12.88;76.72;99592.47;5052223;28;20415;-82
2023/06/13 03:46:59;;;;;;;10.35;7.63;;;;;;;12.61;76.41;99554.84;5052336;28;20109;-82
2023/06/13 03:49:25;;;;;;;9.23;7.05;;;;;;;12.73;76.72;99586.34;5051015;28;20036;-82
2023/06/13 03:51:53;;;;;;;10.45;7.45;;;;;;;12.80;76.85;99594.66;5051462;28;20025;-82
2023/06/13 03:54:20;;;;;;;11.93;7.30;;;;;;;12.67;76.82;99572.78;5052543;28;20086;-81
2023/06/13 03:56:46;;;;;;;12.70;7.32;;;;;;;12.76;76.84;99574.84;5052645;28;20469;-82
2023/06/13 03:59:11;;;;;;;9.20;6.75;;;;;;;12.73;76.96;99575.06;5052380;28;20064;-82
2023/06/13 04:01:37;;;;;;;10.80;7.60;;;;;;;12.92;76.94;99611.44;5051843;28;20404;-82
2023/06/13 04:04:03;;;;;;;7.45;6.55;;;;;;;12.82;76.84;99573.69;5050921;28;20025;-82
2023/06/13 04:06:28;;;;;;;12.80;7.18;;;;;;;12.77;77.16;99591.38;5051879;28;20028;-82
2023/06/13 04:08:54;;;;;;;11.57;7.40;;;;;;;12.84;77.02;99597.94;5050956;28;20033;-82
2023/06/13 04:11:20;;;;;;;12.55;7.05;;;;;;;12.67;77.04;99567.53;5052141;28;20029;-82
2023/06/13 04:13:45;;;;;;;12.52;7.68;;;;;;;12.84;77.28;99603.19;5052191;28;20033;-82
2023/06/13 04:16:10;;;;;;;9.52;6.72;;;;;;;12.71;77.38;99587.34;5051934;28;20021;-82
2023/06/13 04:18:37;;;;;;;15.32;7.38;;;;;;;12.91;77.28;99607.97;5052023;28;20108;-82
2023/06/13 04:21:03;;;;;;;11.13;6.93;;;;;;;12.90;77.42;99606.31;5052356;28;20029;-82
2023/06/13 04:23:29;;;;;;;9.07;6.15;;;;;;;13.03;77.54;99610.84;5051838;28;20039;-82
2023/06/13 04:25:55;;;;;;;9.93;6.78;;;;;;;12.98;77.22;99603.25;5051787;28;20103;-82
2023/06/13 04:28:22;;;;;;;10.60;6.72;;;;;;;13.07;77.68;99617.56;5052015;28;20029;-82
2023/06/13 04:30:49;;;;;;;10.13;6.82;;;;;;;13.04;77.35;99605.50;5051832;28;20025;-82
2023/06/13 04:33:17;;;;;;;12.68;6.75;;;;;;;13.09;77.47;99611.31;5052001;28;20480;-82
2023/06/13 04:35:46;;;;;;;9.65;6.85;;;;;;;13.13;77.08;99604.13;5051772;28;20480;-82
2023/06/13 04:38:13;;;;;;;9.45;6.47;;;;;;;13.00;77.17;99596.16;5051860;28;20025;-82
2023/06/13 04:40:39;;;;;;;12.02;6.95;;;;;;;13.21;77.05;99594.06;5051540;28;20033;-82
2023/06/13 04:43:04;;;;;;;7.05;5.65;;;;;;;13.15;76.88;99571.75;5051600;28;20365;-82
2023/06/13 04:45:30;;;;;;;8.70;6.78;;;;;;;13.43;76.69;99599.75;5051731;28;20387;-82
2023/06/13 04:47:57;;;;;;;11.63;7.03;;;;;;;13.42;76.94;99603.31;5051838;28;20021;-82
2023/06/13 04:50:24;;;;;;;9.27;6.78;;;;;;;13.14;76.97;99553.50;5051750;28;20146;-82
2023/06/13 04:52:53;;;;;;;9.20;6.18;;;;;;;13.43;76.67;99589.28;5051698;28;20511;-82
2023/06/13 04:55:21;;;;;;;11.82;8.38;;;;;;;13.47;76.52;99576.88;5051698;28;20025;-82
2023/06/13 04:57:46;;;;;;;10.23;6.70;;;;;;;13.48;76.54;99561.09;5049986;28;20522;-81
2023/06/13 05:00:12;;;;;;;8.30;6.35;;;;;;;13.66;76.24;99601.00;5052169;28;20175;-82
2023/06/13 05:02:42;;;;;;;8.70;6.78;;;;;;;13.70;75.87;99584.19;5051486;28;20025;-82
2023/06/13 05:05:08;;;;;;;8.70;6.97;;;;;;;13.82;75.82;99590.47;5051568;28;20040;-82
2023/06/13 05:07:34;;;;;;;8.05;6.10;;;;;;;13.64;75.36;99542.66;5051380;28;20029;-82
2023/06/13 05:10:02;;;;;;;13.43;6.57;;;;;;;13.88;75.52;99578.75;5051463;28;20036;-82
2023/06/13 05:12:27;;;;;;;7.85;6.28;;;;;;;13.89;75.46;99596.97;5051250;28;20048;-81
2023/06/13 05:14:54;;;;;;;11.23;7.47;;;;;;;13.84;75.65;99593.81;5051827;28;20056;-82
2023/06/13 05:17:20;;;;;;;12.57;6.38;;;;;;;13.83;76.01;99578.22;5051568;28;20443;-82
2023/06/13 05:19:45;;;;;;;9.13;7.18;;;;;;;13.78;75.91;99588.09;5054523;28;20111;-82
2023/06/13 05:22:11;;;;;;;9.73;6.80;;;;;;;13.81;76.15;99591.38;5055310;28;20396;-82
2023/06/13 05:24:36;;;;;;;11.13;7.13;;;;;;;13.73;76.18;99586.59;5054919;28;20078;-82
2023/06/13 05:27:01;;;;;;;9.48;7.50;;;;;;;13.80;76.46;99612.41;5055100;28;20037;-82
2023/06/13 05:29:27;;;;;;;11.15;7.05;;;;;;;13.71;76.64;99603.34;5055370;28;20028;-82
2023/06/13 05:31:53;;;;;;;9.73;7.18;;;;;;;13.41;76.88;99572.00;5055174;28;20028;-82
2023/06/13 05:34:19;;;;;;;9.05;6.85;;;;;;;13.47;77.32;99584.72;5054949;28;20068;-82
2023/06/13 05:36:45;;;;;;;8.25;6.28;;;;;;;13.45;77.53;99576.13;5054812;28;20096;-82
2023/06/13 05:39:12;;;;;;;8.20;6.20;;;;;;;13.45;77.50;99590.06;5054939;28;20029;-82
2023/06/13 05:41:39;;;;;;;11.20;7.43;;;;;;;13.67;77.41;99609.69;5054690;28;20116;-82
2023/06/13 05:44:05;;;;;;;9.45;6.40;;;;;;;13.64;77.59;99607.25;5055034;28;20020;-82
2023/06/13 05:46:30;;;;;;;13.65;7.38;;;;;;;13.71;77.27;99603.34;5054769;28;20028;-81
2023/06/13 05:48:55;;;;;;;10.13;6.80;;;;;;;13.56;77.24;99591.16;5054902;28;20029;-82
2023/06/13 05:51:21;;;;;;;8.25;6.03;;;;;;;13.76;77.11;99616.16;5054732;28;20025;-82
2023/06/13 05:53:46;;;;;;;11.07;6.10;;;;;;;13.64;76.59;99578.47;5054416;28;20501;-82
2023/06/13 05:56:11;;;;;;;9.75;5.85;;;;;;;13.71;76.63;99588.47;5054494;28;20036;-82
2023/06/13 05:58:37;;;;;;;7.93;5.85;;;;;;;14.00;76.54;99600.75;5053237;28;20057;-82
2023/06/13 06:01:03;;;;;;;8.57;5.55;;;;;;;13.87;76.46;99588.41;5054509;28;20112;-82
2023/06/13 06:03:30;;;;;;;8.05;5.85;;;;;;;13.97;76.18;99575.56;5054251;28;20040;-82
2023/06/13 06:05:55;;;;;;;9.40;6.10;;;;;;;14.15;75.82;99603.22;5054493;28;20060;-82
2023/06/13 06:08:21;;;;;;;9.00;6.15;;;;;;;14.21;75.78;99588.94;5054677;28;20103;-82
2023/06/13 06:10:46;;;;;;;10.55;6.55;;;;;;;14.21;75.09;99581.06;5053918;28;20491;-82
2023/06/13 06:13:11;;;;;;;10.77;6.47;;;;;;;14.36;74.81;99592.34;5053250;28;20047;-82
2023/06/13 06:15:37;;;;;;;8.63;5.82;;;;;;;14.30;74.39;99570.00;5054148;28;20029;-82
2023/06/13 06:18:02;;;;;;;10.20;5.75;;;;;;;14.57;74.58;99604.13;5054234;28;20446;-82
2023/06/13 06:20:28;;;;;;;6.85;5.30;;;;;;;14.67;74.54;99593.91;5054275;28;20472;-82
2023/06/13 06:22:53;;;;;;;6.35;5.20;;;;;;;14.68;73.83;99585.09;5053978;28;20059;-82
2023/06/13 06:25:21;;;;;;;7.75;5.72;;;;;;;14.82;73.61;99568.47;5054456;28;20037;-82
2023/06/13 06:27:47;;;;;;;10.23;5.78;;;;;;;15.00;73.27;99558.53;5053960;28;20078;-82
2023/06/13 06:30:13;;;;;;;9.85;5.88;;;;;;;15.18;72.83;99581.78;5053612;28;20033;-82
2023/06/13 06:32:39;;;;;;;9.07;5.22;;;;;;;15.28;72.45;99587.25;5053577;28;20581;-82
2023/06/13 06:35:04;;;;;;;8.13;5.07;;;;;;;15.19;72.27;99565.09;5053665;28;20053;-82
2023/06/13 06:37:30;;;;;;;7.88;5.57;;;;;;;15.44;72.13;99584.44;5052314;28;20100;-82
2023/06/13 06:39:56;;;;;;;9.15;5.50;;;;;;;15.45;71.62;99537.06;5053681;28;20061;-82
2023/06/13 06:42:21;;;;;;;10.18;5.38;;;;;;;16.23;70.26;99570.22;5053837;28;20025;-82
2023/06/13 06:44:47;;;;;;;7.00;5.30;;;;;;;16.56;69.02;99561.69;5053434;28;20025;-82
2023/06/13 06:47:12;;;;;;;7.43;5.38;;;;;;;17.06;67.85;99562.41;5054023;28;20029;-82
2023/06/13 06:49:38;;;;;;;6.82;4.95;;;;;;;17.45;67.54;99576.16;5053784;28;20106;-82
2023/06/13 06:52:03;;;;;;;7.70;5.30;;;;;;;17.49;65.35;99564.44;5053474;28;20060;-82
2023/06/13 06:54:29;;;;;;;6.15;5.07;;;;;;;17.73;64.92;99568.75;5053342;28;20388;-82
2023/06/13 06:56:54;;;;;;;7.97;4.65;;;;;;;17.67;64.09;99559.53;5053684;28;20021;-82
2023/06/13 06:59:20;;;;;;;4.80;3.95;;;;;;;17.76;64.61;99579.94;5053616;28;20388;-82
2023/06/13 07:01:45;;;;;;;6.05;4.60;;;;;;;18.11;63.97;99565.78;5053321;28;20078;-82
2023/06/13 07:04:10;;;;;;;9.27;4.40;;;;;;;19.61;61.74;99561.41;5053407;28;20028;-82
2023/06/13 07:06:37;;;;;;;7.80;4.70;;;;;;;22.00;54.99;99583.03;5053132;28;20021;-82
2023/06/13 07:09:02;;;;;;;8.02;5.22;;;;;;;22.55;53.12;99584.88;5053125;28;20033;-82
2023/06/13 07:11:27;;;;;;;8.07;5.07;;;;;;;22.13;53.17;99557.03;5053407;28;20083;-82
2023/06/13 07:13:53;;;;;;;6.22;4.38;;;;;;;21.84;53.60;99591.63;5053018;28;20123;-82
2023/06/13 07:16:18;;;;;;;6.40;4.80;;;;;;;21.30;54.97;99579.84;5053401;28;20484;-82
2023/06/13 07:18:43;;;;;;;7.55;5.10;;;;;;;22.28;54.06;99588.38;5052866;28;20028;-82
2023/06/13 07:21:09;;;;;;;4.63;4.13;;;;;;;23.23;51.00;99573.75;5053007;28;20029;-82
2023/06/13 07:23:34;;;;;;;7.30;4.65;;;;;;;24.70;48.89;99572.66;5052815;28;20032;-82
2023/06/13 07:25:59;;;;;;;6.43;3.97;;;;;;;26.00;45.50;99568.22;5053084;28;20024;-82
2023/06/13 07:28:25;;;;;;;5.07;4.30;;;;;;;25.82;45.79;99565.78;5052074;28;20584;-82
2023/06/13 07:30:50;;;;;;;6.25;4.40;;;;;;;25.93;45.71;99578.78;5052845;28;20215;-82
2023/06/13 07:33:15;;;;;;;4.13;3.75;;;;;;;26.89;45.02;99582.16;5052754;28;20477;-82
2023/06/13 07:35:41;;;;;;;7.53;3.92;;;;;;;27.65;42.99;99570.47;5052587;28;20469;-82
2023/06/13 07:38:06;;;;;;;4.70;4.20;;;;;;;28.22;42.69;99571.66;5052542;28;20029;-83
2023/06/13 07:40:32;;;;;;;7.00;3.78;;;;;;;28.12;42.47;99569.28;5052248;28;20025;-83
2023/06/13 07:42:57;;;;;;;5.68;3.55;;;;;;;29.17;40.90;99584.06;5052161;28;20074;-83
2023/06/13 07:45:22;;;;;;;6.38;3.88;;;;;;;30.27;39.70;99583.34;5052481;28;20021;-82
2023/06/13 07:47:48;;;;;;;3.05;2.75;;;;;;;31.12;37.96;99583.78;5052337;28;20044;-83
2023/06/13 07:50:13;;;;;;;4.47;3.30;;;;;;;31.75;37.40;99565.31;5052503;28;20032;-81
2023/06/13 07:52:39;;;;;;;4.70;3.55;;;;;;;32.27;36.69;99582.34;5052457;28;20047;-83
2023/06/13 07:55:05;;;;;;;6.40;3.80;;;;;;;32.26;34.79;99576.13;5052358;28;20029;-82
2023/06/13 07:57:31;;;;;;;7.22;3.85;;;;;;;30.71;35.67;99565.88;5047541;28;20029;-81
2023/06/13 07:59:56;;;;;;;4.30;3.58;;;;;;;30.23;36.30;99568.66;5040195;28;20104;-81
2023/06/13 08:02:23;;;;;;;3.67;2.97;;;;;;;29.88;36.54;99567.84;5044931;28;20399;-81
2023/06/13 08:04:49;;;;;;;5.38;3.28;;;;;;;29.34;37.83;99572.84;5040456;28;20041;-81
2023/06/13 08:07:14;;;;;;;3.85;3.50;;;;;;;29.18;37.95;99559.69;5040311;28;20020;-81
2023/06/13 08:09:40;;;;;;;4.65;3.10;;;;;;;28.97;37.33;99576.66;5041550;28;20376;-82
2023/06/13 08:12:06;;;;;;;5.53;3.60;;;;;;;27.82;38.62;99555.09;5044898;28;20022;-82
2023/06/13 08:14:31;;;;;;;5.32;3.72;;;;;;;26.83;39.99;99549.75;5035495;28;20048;-81
2023/06/13 08:16:57;;;;;;;3.90;3.08;;;;;;;26.04;41.11;99543.72;5032475;28;20025;-82
2023/06/13 08:19:22;;;;;;;7.00;3.40;;;;;;;24.59;42.64;99549.00;5032024;28;20026;-81
2023/06/13 08:21:47;;;;;;;4.82;3.85;;;;;;;24.07;43.66;99562.47;5031796;28;20075;-81
2023/06/13 08:24:13;;;;;;;5.20;3.58;;;;;;;23.50;44.95;99556.81;5031743;28;20025;-81
2023/06/13 08:26:39;;;;;;;5.47;4.10;;;;;;;22.99;45.53;99583.16;5031393;28;20497;-81
2023/06/13 08:29:05;;;;;;;8.10;4.55;;;;;;;22.20;46.31;99583.81;5031852;28;20025;-81
2023/06/13 08:31:32;;;;;;;8.20;3.80;;;;;;;21.70;47.29;99547.03;5031586;28;20060;-81
2023/06/13 08:33:59;;;;;;;5.75;3.42;;;;;;;21.68;48.00;99571.00;5031415;28;20041;-81
2023/06/13 08:36:25;;;;;;;4.43;3.40;;;;;;;21.66;48.11;99545.66;5031523;28;20025;-81
2023/06/13 08:38:52;;;;;;;7.05;4.28;;;;;;;21.35;48.62;99527.31;5031272;28;20064;-81
2023/06/13 08:41:18;;;;;;;5.38;3.38;;;;;;;21.54;48.61;99546.81;5031959;28;20026;-81
2023/06/13 08:43:45;;;;;;;4.15;3.50;;;;;;;21.40;48.50;99545.41;5031963;28;20067;-81
2023/06/13 08:46:11;;;;;;;5.70;3.42;;;;;;;21.48;48.69;99556.13;5031852;28;20088;-81
2023/06/13 08:48:37;;;;;;;6.55;4.03;;;;;;;21.57;48.40;99579.13;5031774;28;20503;-81
2023/06/13 08:51:04;;;;;;;4.80;3.30;;;;;;;21.29;48.60;99564.13;5031695;28;20112;-81
2023/06/13 08:53:31;;;;;;;3.50;2.80;;;;;;;20.95;49.48;99555.78;5034997;28;20079;-81
2023/06/13 08:56:02;;;;;;;5.65;3.63;;;;;;;20.90;49.86;99556.22;5035902;28;20095;-81
2023/06/13 08:58:29;;;;;;;4.88;4.10;;;;;;;20.61;50.03;99549.09;5036006;28;20037;-81
2023/06/13 09:00:57;;;;;;;5.45;3.63;;;;;;;20.46;51.16;99571.59;5035674;28;20060;-82
2023/06/13 09:03:25;;;;;;;5.97;3.60;;;;;;;19.98;52.36;99553.78;5035680;28;20108;-81
2023/06/13 09:05:50;;;;;;;4.82;3.90;;;;;;;19.86;52.40;99554.84;5035367;28;20577;-81
2023/06/13 09:08:17;;;;;;;6.60;4.00;;;;;;;19.60;53.24;99563.19;5035806;28;20329;-81
2023/06/13 09:10:44;;;;;;;5.93;4.60;;;;;;;19.67;53.60;99576.72;5035375;28;20025;-81
2023/06/13 09:13:12;;;;;;;7.45;4.43;;;;;;;19.48;53.97;99563.41;5035638;28;20037;-81
2023/06/13 09:15:37;;;;;;;4.88;3.95;;;;;;;19.43;53.35;99563.78;5035514;28;20030;-81
2023/06/13 09:18:03;;;;;;;10.57;3.45;;;;;;;19.42;54.12;99570.88;5033910;28;20159;-81
2023/06/13 09:20:30;;;;;;;5.35;3.35;;;;;;;19.66;54.24;99597.03;5034296;28;20037;-81
2023/06/13 09:22:56;;;;;;;9.27;4.10;;;;;;;19.62;52.74;99581.56;5035309;28;20036;-81
2023/06/13 09:25:22;;;;;;;9.15;3.80;;;;;;;19.62;53.68;99592.13;5035349;28;20033;-81
2023/06/13 09:27:47;;;;;;;6.75;3.75;;;;;;;19.26;55.11;99569.66;5035073;28;20026;-81
2023/06/13 09:30:15;;;;;;;4.65;3.65;;;;;;;19.14;55.65;99569.72;5035432;28;20420;-81
2023/06/13 09:32:51;;;;;;;3.67;3.33;;;;;;;19.30;56.09;99582.47;5035428;28;20022;-81
2023/06/13 09:35:17;;;;;;;7.85;3.78;;;;;;;19.07;55.22;99584.38;5034236;28;20644;-81
2023/06/13 09:37:42;;;;;;;3.40;3.10;;;;;;;19.15;55.56;99578.47;5035129;28;20041;-81
2023/06/13 09:40:09;;;;;;;7.50;3.53;;;;;;;19.32;54.92;99579.69;5035218;28;20025;-81
2023/06/13 09:42:35;;;;;;;4.15;3.75;;;;;;;19.25;56.42;99549.47;5035138;28;20030;-81
2023/06/13 09:45:07;;;;;;;8.07;4.70;;;;;;;19.36;56.98;99555.53;5034725;28;20056;-81
2023/06/13 09:47:33;;;;;;;;;;;;;;;19.58;56.34;99588.88;5035200;28;20096;-81
2023/06/13 09:49:58;;;;;;;7.10;5.00;;;;;;;19.34;56.30;99583.88;5034979;28;19912;-81
2023/06/13 09:52:30;;;;;;;7.90;4.97;;;;;;;19.00;56.81;99537.50;5035138;28;20104;-81
2023/06/13 09:54:56;;;;;;;7.20;4.28;;;;;;;19.16;56.54;99561.66;5034698;28;20033;-81
2023/06/13 09:57:22;;;;;;;6.35;4.10;;;;;;;19.26;56.15;99574.94;5040894;28;20025;-81
2023/06/13 09:59:50;;;;;;;4.95;3.90;;;;;;;19.33;56.10;99561.06;5044880;28;20028;-81
2023/06/13 10:02:16;;;;;;;6.30;4.18;;;;;;;19.40;54.75;99545.56;5050912;28;20026;-81
2023/06/13 10:04:41;;;;;;;6.70;4.15;;;;;;;19.61;54.04;99583.38;5047453;28;20037;-81
2023/06/13 10:07:07;;;;;;;5.40;4.20;;;;;;;19.62;54.28;99568.34;5052996;28;20431;-81
2023/06/13 10:09:32;;;;;;;4.03;3.20;;;;;;;19.69;53.75;99586.22;5054236;28;20519;-81
2023/06/13 10:11:59;;;;;;;4.40;3.50;;;;;;;19.47;53.64;99570.47;5054052;28;20527;-81
2023/06/13 10:14:27;;;;;;;6.20;4.25;;;;;;;19.32;53.47;99577.06;5054230;28;20378;-81
2023/06/13 10:17:06;;;;;;;4.90;3.40;;;;;;;19.00;53.58;99542.78;5054016;28;20024;-81
2023/06/13 10:19:36;;;;;;;6.95;3.90;;;;;;;18.94;53.19;99573.16;5053011;28;20033;-81
2023/06/13 10:22:03;;;;;;;3.92;3.20;;;;;;;18.85;53.61;99545.72;5054135;28;20108;-81
2023/06/13 10:24:29;;;;;;;5.60;3.58;;;;;;;18.86;53.45;99581.69;5053745;28;20036;-81
2023/06/13 10:26:58;;;;;;;4.93;4.18;;;;;;;18.60;54.25;99527.56;5053864;28;20021;-81
2023/06/13 10:29:35;;;;;;;7.07;4.57;;;;;;;18.95;54.13;99582.75;5054551;28;20036;-81
2023/06/13 10:32:23;;;;;;;4.47;3.40;;;;;;;18.64;53.57;99564.13;5053947;28;20021;-81
2023/06/13 10:35:12;;;;;;;4.97;3.78;;;;;;;18.81;53.72;99570.69;5053556;28;20057;-81
2023/06/13 10:37:59;;;;;;;4.35;2.83;;;;;;;18.99;54.01;99554.31;5054219;28;20060;-81
2023/06/13 10:40:54;;;;;;;6.03;3.47;;;;;;;19.24;53.29;99553.91;5053993;28;20112;-81
2023/06/13 10:43:46;;;;;;;4.10;3.17;;;;;;;19.33;52.96;99578.72;5054193;28;20033;-81
2023/06/13 10:46:13;;;;;;;6.75;3.50;;;;;;;19.29;52.92;99561.44;5054174;28;20028;-81
2023/06/13 10:48:42;;;;;;;4.18;3.17;;;;;;;19.30;52.89;99550.78;5054165;28;20373;-81
2023/06/13 10:51:10;;;;;;;5.05;3.40;;;;;;;19.38;52.66;99556.25;5053438;28;20032;-81
2023/06/13 10:53:37;;;;;;;4.25;3.50;;;;;;;19.38;52.82;99550.09;5052275;28;20051;-81
2023/06/13 10:56:06;;;;;;;3.70;2.95;;;;;;;19.49;52.32;99523.63;5053425;28;20112;-81
2023/06/13 10:58:34;;;;;;;4.55;3.25;;;;;;;19.69;51.34;99543.09;5053542;28;20035;-81
2023/06/13 11:01:24;;;;;;;4.35;3.15;;;;;;;19.77;52.03;99551.19;5053459;28;20033;-81
2023/06/13 11:03:50;;;;;;;4.43;3.03;;;;;;;19.92;51.51;99546.38;5053136;28;20029;-81
2023/06/13 11:06:16;;;;;;;4.28;3.30;;;;;;;19.87;51.22;99528.28;5053361;28;20503;-81
2023/06/13 11:08:42;;;;;;;3.72;2.95;;;;;;;20.00;51.14;99537.78;5053216;28;20025;-81
2023/06/13 11:11:09;;;;;;;5.75;3.28;;;;;;;19.88;50.84;99529.09;5053188;28;20060;-81
2023/06/13 11:13:35;;;;;;;4.40;3.42;;;;;;;19.79;51.99;99541.31;5053248;28;20419;-81
2023/06/13 11:16:35;;;;;;;4.25;3.00;;;;;;;19.86;51.84;99539.00;5051993;28;20103;-81
2023/06/13 11:19:08;;;;;;;3.30;2.78;;;;;;;20.27;52.01;99535.38;5052775;28;20086;-81
2023/06/13 11:21:33;;;;;;;4.65;3.30;;;;;;;20.43;51.79;99521.59;5053197;28;20033;-81
2023/06/13 11:23:59;;;;;;;4.15;3.53;;;;;;;20.65;52.53;99554.94;5052828;28;20488;-81
2023/06/13 11:26:25;;;;;;;4.82;3.42;;;;;;;20.30;53.45;99529.78;5053069;28;20083;-82
2023/06/13 11:28:53;;;;;;;5.78;3.58;;;;;;;20.02;54.47;99515.53;5052676;28;20054;-82
2023/06/13 11:31:19;;;;;;;5.47;3.35;;;;;;;19.86;55.40;99539.00;5052869;28;20033;-81